Time;durP1;ratioP1;P1;durP2;ratioP2;P2;SDS_P1;SDS_P2;PMS_P1;PMS_P2;Temp;Humidity;BMP_temperature;BMP_pressure;BME280_temperature;BME280_humidity;BME280_pressure;Samples;Min_cycle;Max_cycle;Signal;HPM_P1;HPM_P2
2021/08/26 00:01:10;;;;;;;1.60;1.50;;;;;;;20.71;57.52;99299.94;1803401;77;21026;-68
2021/08/26 00:06:18;;;;;;;1.62;1.50;;;;;;;20.70;57.58;99305.03;1807007;77;21078;-69
2021/08/26 00:08:47;;;;;;;1.60;1.50;;;;;;;20.70;57.61;99311.78;1807037;77;21061;-69
2021/08/26 00:11:13;;;;;;;1.50;1.40;;;;;;;20.69;57.62;99317.72;1797612;77;21015;-67
2021/08/26 00:13:43;;;;;;;1.70;1.60;;;;;;;20.68;57.64;99307.16;1794827;77;21052;-67
2021/08/26 00:16:09;;;;;;;2.08;1.87;;;;;;;20.67;57.68;99312.26;1806286;77;21078;-68
2021/08/26 00:18:36;;;;;;;2.77;1.70;;;;;;;20.65;57.72;99315.23;1788476;78;21299;-67
2021/08/26 00:21:02;;;;;;;1.80;1.70;;;;;;;20.65;57.75;99317.92;1778082;78;21086;-69
2021/08/26 00:23:30;;;;;;;1.92;1.65;;;;;;;20.66;57.79;99324.13;1805523;77;21112;-66
2021/08/26 00:25:57;;;;;;;1.70;1.60;;;;;;;20.64;57.77;99324.38;1806484;77;21102;-68
2021/08/26 00:28:23;;;;;;;1.82;1.70;;;;;;;20.64;57.81;99327.06;1798783;77;21105;-68
2021/08/26 00:30:49;;;;;;;3.05;1.82;;;;;;;20.64;57.79;99327.06;1796287;77;21055;-69
2021/08/26 00:33:17;;;;;;;1.40;1.30;;;;;;;20.64;57.82;99332.47;1806396;77;21078;-68
2021/08/26 00:35:45;;;;;;;1.70;1.60;;;;;;;20.64;57.84;99320.86;1787111;77;21018;-68
2021/08/26 00:38:11;;;;;;;1.70;1.60;;;;;;;20.63;57.90;99329.50;1778969;78;21025;-68
2021/08/26 00:40:38;;;;;;;2.58;1.40;;;;;;;20.62;57.88;99327.30;1790553;78;21015;-68
2021/08/26 00:43:06;;;;;;;2.12;1.92;;;;;;;20.62;57.89;99323.80;1800785;77;21030;-67
2021/08/26 00:45:36;;;;;;;1.55;1.45;;;;;;;20.61;57.91;99316.24;1796651;77;21076;-68
2021/08/26 00:48:03;;;;;;;2.33;1.80;;;;;;;20.61;57.91;99313.54;1799011;77;21618;-68
2021/08/26 00:50:29;;;;;;;1.85;1.67;;;;;;;20.61;57.84;99322.17;1806696;77;21047;-68
2021/08/26 00:52:58;;;;;;;1.55;1.45;;;;;;;20.61;57.85;99312.20;1806329;77;21518;-68
2021/08/26 00:55:25;;;;;;;1.98;1.60;;;;;;;20.61;57.83;99319.48;1796993;77;21041;-67
2021/08/26 00:57:51;;;;;;;1.50;1.40;;;;;;;20.60;57.85;99325.39;1769640;78;21822;-68
2021/08/26 01:00:20;;;;;;;1.60;1.50;;;;;;;20.62;57.84;99328.66;1806217;77;21164;-66
2021/08/26 01:03:13;;;;;;;2.33;1.45;;;;;;;20.62;57.77;99323.80;1793989;78;21037;-67
2021/08/26 01:05:48;;;;;;;2.20;2.00;;;;;;;20.62;57.71;99325.15;1805409;77;21037;-67
2021/08/26 01:08:40;;;;;;;1.72;1.40;;;;;;;20.60;57.67;99329.44;1806417;77;21046;-67
2021/08/26 01:11:06;;;;;;;1.70;1.60;;;;;;;20.59;57.70;99331.86;1793429;78;21097;-67
2021/08/26 01:13:37;;;;;;;1.65;1.55;;;;;;;20.57;57.75;99324.52;1797246;77;21007;-67
2021/08/26 01:16:12;;;;;;;1.70;1.60;;;;;;;20.56;57.79;99329.61;1806350;78;21507;-69
2021/08/26 01:18:46;;;;;;;2.00;1.90;;;;;;;20.56;57.85;99324.20;1805007;77;21042;-67
2021/08/26 01:21:15;;;;;;;1.90;1.65;;;;;;;20.55;57.81;99319.89;1805369;77;21053;-68
2021/08/26 01:23:47;;;;;;;1.57;1.47;;;;;;;20.55;57.77;99321.75;1784349;78;21894;-68
2021/08/26 01:26:42;;;;;;;1.80;1.70;;;;;;;20.54;57.88;99316.89;1794110;78;21273;-67
2021/08/26 01:29:09;;;;;;;2.20;1.82;;;;;;;20.55;57.90;99320.40;1805879;77;21133;-68
2021/08/26 01:31:37;;;;;;;1.85;1.75;;;;;;;20.53;57.92;99326.57;1806382;78;21082;-66
2021/08/26 01:34:04;;;;;;;1.45;1.35;;;;;;;20.52;57.92;99327.11;1758465;77;21108;-66
2021/08/26 01:36:32;;;;;;;1.90;1.80;;;;;;;20.52;57.92;99321.71;1797076;77;21966;-67
2021/08/26 01:39:04;;;;;;;2.55;1.60;;;;;;;20.52;57.97;99323.06;1796023;77;21077;-68
2021/08/26 01:41:46;;;;;;;1.70;1.60;;;;;;;20.53;57.97;99326.06;1806537;77;22184;-67
2021/08/26 01:44:27;;;;;;;2.05;1.70;;;;;;;20.53;57.94;99317.97;1784205;77;28818;-68
2021/08/26 01:46:57;;;;;;;1.90;1.72;;;;;;;20.51;57.95;99318.72;1806453;77;21077;-68
2021/08/26 01:49:25;;;;;;;3.37;1.70;;;;;;;20.52;57.95;99319.02;1804064;77;21496;-68
2021/08/26 01:51:52;;;;;;;2.15;1.60;;;;;;;20.52;57.92;99320.91;1762547;78;21009;-66
2021/08/26 01:54:19;;;;;;;2.25;1.70;;;;;;;20.52;57.91;99309.57;1786378;77;21049;-67
2021/08/26 01:56:47;;;;;;;2.00;1.80;;;;;;;20.52;57.88;99312.27;1777744;77;21565;-68
2021/08/26 01:59:13;;;;;;;1.98;1.70;;;;;;;20.52;57.89;99304.17;1806285;77;21034;-68
2021/08/26 02:01:39;;;;;;;4.40;3.72;;;;;;;20.53;57.87;99306.34;1805397;77;21079;-68
2021/08/26 02:04:07;;;;;;;2.05;1.90;;;;;;;20.53;57.87;99307.17;1827167;77;21000;-68
2021/08/26 02:06:34;;;;;;;1.75;1.65;;;;;;;20.53;57.82;99305.83;1827971;77;21516;-68
2021/08/26 02:09:01;;;;;;;2.60;1.70;;;;;;;20.54;57.79;99297.19;1827283;77;20997;-67
2021/08/26 02:11:27;;;;;;;1.95;1.80;;;;;;;20.53;57.78;99292.34;1823293;77;20993;-68
2021/08/26 02:13:55;;;;;;;2.30;1.90;;;;;;;20.53;57.78;99295.03;1827095;77;21062;-70
2021/08/26 02:16:22;;;;;;;1.80;1.70;;;;;;;20.54;57.77;99289.09;1827204;77;21312;-67
2021/08/26 02:18:48;;;;;;;1.82;1.72;;;;;;;20.53;57.76;99292.34;1825905;77;21543;-67
2021/08/26 02:21:16;;;;;;;2.40;1.85;;;;;;;20.54;57.76;99285.05;1827260;77;21043;-67
2021/08/26 02:23:47;;;;;;;2.27;1.65;;;;;;;20.54;57.72;99283.70;1827470;77;21011;-67
2021/08/26 02:26:12;;;;;;;2.15;1.90;;;;;;;20.54;57.75;99279.66;1827440;77;21808;-67
2021/08/26 02:28:39;;;;;;;2.45;1.80;;;;;;;20.54;57.72;99275.61;1822789;77;21035;-69
2021/08/26 02:31:05;;;;;;;7.35;2.52;;;;;;;20.54;57.67;99279.66;1827148;77;21031;-68
2021/08/26 02:33:32;;;;;;;1.95;1.65;;;;;;;20.54;57.64;99281.00;1827654;77;21613;-68
2021/08/26 02:35:59;;;;;;;1.77;1.62;;;;;;;20.54;57.56;99278.30;1827172;77;21075;-67
2021/08/26 02:38:26;;;;;;;2.00;1.90;;;;;;;20.54;57.51;99286.40;1827598;77;21084;-67
2021/08/26 02:40:52;;;;;;;2.15;1.77;;;;;;;20.53;57.52;99278.84;1827183;77;21117;-68
2021/08/26 02:43:18;;;;;;;1.77;1.60;;;;;;;20.53;57.52;99282.89;1827599;77;21070;-68
2021/08/26 02:45:44;;;;;;;2.15;1.90;;;;;;;20.53;57.51;99281.55;1822619;77;21566;-68
2021/08/26 02:48:11;;;;;;;1.80;1.70;;;;;;;20.52;57.45;99279.89;1827014;77;21099;-68
2021/08/26 02:50:37;;;;;;;2.10;1.90;;;;;;;20.53;57.49;99278.84;1826524;77;21966;-69
2021/08/26 02:53:04;;;;;;;2.00;1.80;;;;;;;20.55;57.45;99282.63;1826828;77;21063;-68
2021/08/26 02:55:31;;;;;;;2.52;1.80;;;;;;;20.55;57.44;99279.41;1827365;77;21015;-68
2021/08/26 02:57:57;;;;;;;2.33;2.12;;;;;;;20.56;57.42;99278.88;1827382;77;20988;-67
2021/08/26 03:00:24;;;;;;;2.37;2.02;;;;;;;20.56;57.43;99273.48;1827295;77;21575;-68
2021/08/26 03:02:50;;;;;;;1.82;1.72;;;;;;;20.56;57.38;99272.13;1819799;77;21126;-68
2021/08/26 03:05:16;;;;;;;3.95;2.02;;;;;;;20.55;57.37;99278.06;1806103;76;21473;-69
2021/08/26 03:07:43;;;;;;;1.60;1.47;;;;;;;20.56;57.43;99272.13;1777328;78;21080;-68
2021/08/26 03:10:10;;;;;;;2.20;2.00;;;;;;;20.55;57.45;99267.27;1823056;77;21537;-67
2021/08/26 03:12:38;;;;;;;2.42;1.87;;;;;;;20.56;57.63;99262.69;1791165;77;21890;-68
2021/08/26 03:15:06;;;;;;;2.12;1.92;;;;;;;20.56;57.89;99265.38;1784474;78;21132;-68
2021/08/26 03:17:32;;;;;;;1.70;1.60;;;;;;;20.55;58.00;99263.23;1823437;77;21041;-68
2021/08/26 03:19:59;;;;;;;1.70;1.60;;;;;;;20.55;57.89;99271.32;1812457;77;21103;-67
2021/08/26 03:22:25;;;;;;;2.10;1.90;;;;;;;20.55;57.78;99276.72;1823563;77;21030;-68
2021/08/26 03:24:52;;;;;;;2.02;1.70;;;;;;;20.54;57.83;99276.41;1823623;77;21010;-68
2021/08/26 03:27:18;;;;;;;2.58;1.98;;;;;;;20.55;57.76;99277.22;1823358;77;21258;-67
2021/08/26 03:29:44;;;;;;;1.87;1.77;;;;;;;20.55;57.71;99278.06;1823272;77;21570;-67
2021/08/26 03:32:11;;;;;;;2.90;1.60;;;;;;;20.55;57.70;99279.41;1823534;77;21065;-68
2021/08/26 03:34:38;;;;;;;2.27;1.80;;;;;;;20.55;57.71;99274.02;1823512;77;21042;-68
2021/08/26 03:37:04;;;;;;;3.40;1.98;;;;;;;20.55;57.75;99271.83;1812504;77;21057;-68
2021/08/26 03:39:31;;;;;;;2.15;1.90;;;;;;;20.54;57.81;99268.32;1816998;77;21112;-67
2021/08/26 03:41:57;;;;;;;2.95;1.85;;;;;;;20.55;57.78;99265.08;1791039;77;21022;-68
2021/08/26 03:44:24;;;;;;;2.02;1.67;;;;;;;20.54;57.84;99268.32;1794458;77;21021;-67
2021/08/26 03:46:51;;;;;;;3.40;2.42;;;;;;;20.54;57.93;99271.02;1823359;77;20999;-67
2021/08/26 03:49:18;;;;;;;2.27;1.95;;;;;;;20.54;58.06;99277.77;1804487;77;21253;-68
2021/08/26 03:51:44;;;;;;;2.22;2.02;;;;;;;20.52;58.08;99266.40;1823612;77;21526;-68
2021/08/26 03:54:11;;;;;;;3.98;2.40;;;;;;;20.52;58.06;99267.75;1813021;77;21034;-67
2021/08/26 03:56:37;;;;;;;2.98;2.25;;;;;;;20.52;58.06;99275.84;1823541;77;21152;-66
2021/08/26 03:59:03;;;;;;;2.47;2.08;;;;;;;20.52;58.08;99269.09;1812388;77;21638;-66
2021/08/26 04:01:32;;;;;;;2.30;2.10;;;;;;;20.52;58.05;99267.75;1810856;77;21010;-68
2021/08/26 04:03:59;;;;;;;3.00;2.40;;;;;;;20.52;58.10;99270.45;1806338;78;21083;-67
2021/08/26 04:06:25;;;;;;;4.45;2.42;;;;;;;20.51;58.19;99271.50;1788157;77;21478;-68
2021/08/26 04:08:51;;;;;;;2.37;2.15;;;;;;;20.52;58.19;99277.19;1801901;77;21022;-68
2021/08/26 04:11:20;;;;;;;3.35;1.90;;;;;;;20.52;58.23;99274.50;1790290;78;21081;-69
2021/08/26 04:13:46;;;;;;;2.17;2.05;;;;;;;20.52;58.23;99272.34;1806354;77;21085;-68
2021/08/26 04:16:13;;;;;;;2.77;2.50;;;;;;;20.52;58.22;99266.94;1806314;77;21075;-68
2021/08/26 04:18:39;;;;;;;2.77;2.20;;;;;;;20.51;58.30;99263.40;1806283;77;21046;-67
2021/08/26 04:21:06;;;;;;;2.67;2.25;;;;;;;20.51;58.25;99266.10;1806239;77;21034;-67
2021/08/26 04:23:32;;;;;;;3.22;2.27;;;;;;;20.51;58.26;99267.45;1806532;78;21614;-68
2021/08/26 04:25:59;;;;;;;3.77;2.17;;;;;;;20.52;58.17;99272.34;1804041;77;21089;-67
2021/08/26 04:28:25;;;;;;;2.17;1.98;;;;;;;20.50;58.09;99267.17;1791528;78;21123;-69
2021/08/26 04:30:53;;;;;;;2.55;2.35;;;;;;;20.52;58.03;99258.84;1783703;77;21527;-68
2021/08/26 04:33:20;;;;;;;2.72;2.40;;;;;;;20.52;58.09;99254.80;1806308;78;21030;-67
2021/08/26 04:35:46;;;;;;;3.85;2.55;;;;;;;20.52;58.10;99252.09;1806423;77;21041;-68
2021/08/26 04:38:12;;;;;;;5.33;3.05;;;;;;;20.53;58.22;99254.56;1806391;77;21554;-69
2021/08/26 04:40:39;;;;;;;2.60;2.40;;;;;;;20.53;58.40;99253.72;1806435;77;21134;-70
2021/08/26 04:43:06;;;;;;;2.58;2.37;;;;;;;20.52;58.40;99248.86;1779731;78;21101;-68
2021/08/26 04:45:33;;;;;;;2.60;2.40;;;;;;;20.54;58.32;99249.97;1793215;77;21042;-68
2021/08/26 04:48:00;;;;;;;3.08;2.70;;;;;;;20.52;58.35;99251.56;1802480;77;21561;-67
2021/08/26 04:50:26;;;;;;;3.30;2.62;;;;;;;20.54;58.36;99255.37;1806306;77;21097;-69
2021/08/26 04:52:53;;;;;;;2.95;2.58;;;;;;;20.53;58.40;99249.67;1806364;77;22354;-68
2021/08/26 04:55:19;;;;;;;2.30;2.10;;;;;;;20.54;58.56;99254.02;1806706;78;21022;-69
2021/08/26 04:57:45;;;;;;;2.58;2.37;;;;;;;20.53;58.94;99250.52;1806206;77;21004;-67
2021/08/26 05:00:13;;;;;;;3.98;2.45;;;;;;;20.55;59.25;99256.98;1804582;77;22022;-68
2021/08/26 05:02:39;;;;;;;26.15;18.90;;;;;;;20.55;59.05;99256.98;1792744;78;21109;-68
2021/08/26 05:05:07;;;;;;;20.70;14.40;;;;;;;20.55;58.75;99252.43;1797782;77;21960;-68
2021/08/26 05:07:35;;;;;;;6.28;3.95;;;;;;;20.55;58.54;99255.64;1806224;77;21097;-69
2021/08/26 05:10:03;;;;;;;3.00;2.70;;;;;;;20.55;58.55;99259.18;1806376;77;21058;-70
2021/08/26 05:12:30;;;;;;;3.72;2.60;;;;;;;20.55;58.66;99256.98;1806347;77;21195;-68
2021/08/26 05:14:58;;;;;;;3.87;2.77;;;;;;;20.56;58.69;99258.09;1806346;77;21046;-69
2021/08/26 05:17:24;;;;;;;2.65;2.45;;;;;;;20.56;58.60;99250.00;1799042;77;21134;-68
2021/08/26 05:19:50;;;;;;;3.65;2.90;;;;;;;20.56;58.52;99259.45;1779050;78;21066;-68
2021/08/26 05:22:17;;;;;;;4.35;2.92;;;;;;;20.56;58.41;99250.00;1800404;77;21082;-68
2021/08/26 05:24:43;;;;;;;3.37;2.70;;;;;;;20.57;58.31;99257.05;1806460;78;21011;-69
2021/08/26 05:27:09;;;;;;;4.12;3.27;;;;;;;20.58;58.26;99251.11;1806361;77;21062;-69
2021/08/26 05:29:36;;;;;;;3.52;2.67;;;;;;;20.58;58.21;99260.02;1796335;78;21223;-69
2021/08/26 05:32:04;;;;;;;5.33;3.62;;;;;;;20.57;58.17;99253.00;1794287;77;21557;-68
2021/08/26 05:34:31;;;;;;;3.58;3.27;;;;;;;20.59;58.18;99257.66;1804594;77;21090;-69
2021/08/26 05:36:57;;;;;;;3.35;2.80;;;;;;;20.60;58.14;99265.20;1806237;78;21019;-69
2021/08/26 05:39:24;;;;;;;4.00;3.35;;;;;;;20.60;58.19;99261.97;1806189;77;21054;-67
2021/08/26 05:41:50;;;;;;;4.25;3.12;;;;;;;20.60;58.23;99265.20;1806469;77;21117;-68
2021/08/26 05:44:17;;;;;;;4.08;3.58;;;;;;;20.61;58.28;99256.06;1804502;77;21038;-70
2021/08/26 05:46:44;;;;;;;7.00;3.37;;;;;;;20.62;58.34;99260.38;1774805;78;21542;-69
2021/08/26 05:49:10;;;;;;;6.35;3.35;;;;;;;20.62;58.38;99258.48;1793091;78;21040;-68
2021/08/26 05:51:37;;;;;;;5.58;4.40;;;;;;;20.63;58.47;99256.63;1791881;77;21632;-67
2021/08/26 05:54:04;;;;;;;11.03;3.77;;;;;;;20.64;58.53;99258.80;1806411;77;21107;-69
2021/08/26 05:56:31;;;;;;;4.37;3.67;;;;;;;20.65;58.57;99256.36;1783743;77;21097;-68
2021/08/26 05:58:57;;;;;;;3.40;3.10;;;;;;;20.66;58.55;99260.71;1774818;78;21069;-70
2021/08/26 06:01:29;;;;;;;5.67;3.05;;;;;;;20.66;58.53;99253.96;1774433;77;21026;-70
2021/08/26 06:03:56;;;;;;;3.80;3.30;;;;;;;20.66;58.56;99254.77;1774472;78;20995;-68
2021/08/26 06:06:23;;;;;;;5.97;3.98;;;;;;;20.66;58.51;99248.56;1792412;78;21075;-68
2021/08/26 06:08:50;;;;;;;4.17;2.90;;;;;;;20.66;58.49;99243.98;1798099;77;21045;-69
2021/08/26 06:11:16;;;;;;;3.45;3.15;;;;;;;20.66;58.78;99246.67;1806308;78;21030;-68
2021/08/26 06:13:43;;;;;;;4.92;3.20;;;;;;;20.67;59.13;99246.98;1806298;78;21023;-68
2021/08/26 06:16:09;;;;;;;5.87;3.20;;;;;;;20.68;59.35;99241.04;1806379;77;21534;-68
2021/08/26 06:18:36;;;;;;;3.42;2.92;;;;;;;20.69;59.59;99242.69;1806273;78;21117;-68
2021/08/26 06:21:03;;;;;;;4.05;2.77;;;;;;;20.69;59.75;99243.50;1805901;77;21034;-68
2021/08/26 06:23:29;;;;;;;7.80;3.00;;;;;;;20.70;59.88;99244.30;1806308;77;21635;-68
2021/08/26 06:25:55;;;;;;;3.45;2.55;;;;;;;20.71;59.97;99241.91;1798003;77;21105;-69
2021/08/26 06:28:23;;;;;;;3.10;2.80;;;;;;;20.70;60.17;99245.12;1806328;77;21062;-69
2021/08/26 06:30:49;;;;;;;2.77;2.58;;;;;;;20.71;60.30;99247.30;1806136;77;21960;-69
2021/08/26 06:33:16;;;;;;;3.10;2.80;;;;;;;20.71;60.46;99249.47;1806207;77;21574;-68
2021/08/26 06:35:42;;;;;;;4.17;3.25;;;;;;;20.72;60.79;99251.08;1806572;77;21070;-69
2021/08/26 06:38:08;;;;;;;5.62;3.15;;;;;;;20.72;60.92;99260.53;1806118;77;21042;-70
2021/08/26 06:40:35;;;;;;;3.25;2.72;;;;;;;20.72;61.21;99263.77;1786313;78;21545;-69
2021/08/26 06:43:02;;;;;;;4.10;3.05;;;;;;;20.73;61.21;99265.42;1796217;77;21102;-69
2021/08/26 06:45:29;;;;;;;4.65;3.10;;;;;;;20.73;61.40;99270.28;1788619;77;21013;-69
2021/08/26 06:47:56;;;;;;;6.08;3.25;;;;;;;20.73;61.52;99270.28;1796722;77;21046;-69
2021/08/26 06:50:22;;;;;;;3.37;3.08;;;;;;;20.72;61.58;99279.42;1778028;78;21046;-69
2021/08/26 06:52:49;;;;;;;4.25;3.70;;;;;;;20.71;61.66;99280.50;1796746;77;21089;-68
2021/08/26 06:55:15;;;;;;;3.52;3.08;;;;;;;20.71;61.71;99279.69;1762826;78;21777;-69
2021/08/26 06:57:42;;;;;;;4.25;3.83;;;;;;;20.71;61.73;99282.39;1799857;77;21030;-71
2021/08/26 07:00:10;;;;;;;3.80;3.50;;;;;;;20.72;61.88;99278.61;1791059;77;21568;-68
2021/08/26 07:02:36;;;;;;;3.90;3.22;;;;;;;20.70;62.20;99274.80;1806265;77;21081;-68
2021/08/26 07:05:04;;;;;;;4.33;3.65;;;;;;;20.70;62.15;99276.70;1806122;77;21049;-67
2021/08/26 07:07:31;;;;;;;3.58;3.27;;;;;;;20.71;62.02;99289.14;1806259;77;21124;-69
2021/08/26 07:09:58;;;;;;;4.22;3.40;;;;;;;20.70;62.00;99289.65;1786035;77;21548;-69
2021/08/26 07:12:30;;;;;;;4.47;3.62;;;;;;;20.71;61.92;99290.48;1796795;78;21549;-69
2021/08/26 07:14:53;;;;;;;5.22;3.87;;;;;;;20.70;61.98;99290.19;1792021;78;21097;-68
2021/08/26 07:17:19;;;;;;;4.55;3.60;;;;;;;20.71;61.87;99291.84;1791648;77;21053;-68
2021/08/26 07:19:46;;;;;;;4.92;3.95;;;;;;;20.70;61.85;99288.30;1806279;78;21802;-69
2021/08/26 07:22:12;;;;;;;6.45;3.98;;;;;;;20.70;61.72;99295.05;1781688;77;21013;-69
2021/08/26 07:24:38;;;;;;;5.55;4.33;;;;;;;20.70;61.72;99298.28;1774678;78;21581;-69
2021/08/26 07:27:05;;;;;;;5.97;4.75;;;;;;;20.69;61.80;99298.02;1796178;78;21097;-68
2021/08/26 07:29:32;;;;;;;4.92;4.50;;;;;;;20.69;61.75;99302.06;1797604;77;21053;-67
2021/08/26 07:31:58;;;;;;;6.78;4.87;;;;;;;20.70;61.82;99299.64;1774663;78;21088;-68
2021/08/26 07:34:24;;;;;;;8.15;4.78;;;;;;;20.69;61.88;99300.72;1802232;78;21544;-70
2021/08/26 07:36:52;;;;;;;6.47;4.78;;;;;;;20.68;62.04;99297.72;1806409;77;22232;-70
2021/08/26 07:39:18;;;;;;;5.47;4.90;;;;;;;20.68;62.12;99295.02;1784024;77;21033;-69
2021/08/26 07:41:45;;;;;;;8.45;4.58;;;;;;;20.67;62.26;99291.51;1806421;78;21077;-68
2021/08/26 07:44:11;;;;;;;6.75;5.10;;;;;;;20.68;62.39;99297.72;1806330;77;21085;-68
2021/08/26 07:46:37;;;;;;;5.30;4.80;;;;;;;20.68;62.50;99289.62;1796269;77;21499;-68
2021/08/26 07:49:05;;;;;;;7.03;5.03;;;;;;;20.68;62.55;99284.22;1770142;78;21095;-69
2021/08/26 07:51:31;;;;;;;5.85;5.08;;;;;;;20.69;62.49;99288.57;1788514;77;21019;-68
2021/08/26 07:53:59;;;;;;;6.20;5.47;;;;;;;20.69;62.59;99294.78;1789103;77;21034;-70
2021/08/26 07:56:25;;;;;;;9.88;5.10;;;;;;;20.69;62.59;99303.41;1802115;77;21109;-69
2021/08/26 07:58:52;;;;;;;6.40;5.67;;;;;;;20.69;62.68;99308.27;1798108;78;21025;-69
2021/08/26 08:01:18;;;;;;;5.97;5.37;;;;;;;20.70;62.62;99311.78;1793023;78;21104;-69
2021/08/26 08:03:44;;;;;;;5.65;5.00;;;;;;;20.69;62.66;99306.92;1806270;77;21077;-69
2021/08/26 08:06:11;;;;;;;5.33;4.83;;;;;;;20.69;62.68;99300.17;1791315;77;21030;-68
2021/08/26 08:08:37;;;;;;;5.95;5.08;;;;;;;20.69;62.71;99293.42;1777058;77;21960;-68
2021/08/26 08:11:04;;;;;;;5.20;4.55;;;;;;;20.69;62.68;99298.83;1806162;77;21093;-69
2021/08/26 08:13:31;;;;;;;6.33;5.72;;;;;;;20.68;62.72;99302.57;1806438;77;21101;-68
2021/08/26 08:16:00;;;;;;;7.12;5.20;;;;;;;20.68;62.56;99293.13;1806346;77;21019;-70
2021/08/26 08:18:26;;;;;;;5.10;4.17;;;;;;;20.68;62.47;99292.32;1806498;77;21031;-68
2021/08/26 08:20:52;;;;;;;6.08;4.58;;;;;;;20.67;62.13;99291.51;1806183;77;21060;-69
2021/08/26 08:23:19;;;;;;;4.78;4.37;;;;;;;20.68;61.93;99293.13;1806264;77;21502;-68
2021/08/26 08:25:45;;;;;;;6.62;5.15;;;;;;;20.67;62.05;99290.66;1804736;77;21046;-70
2021/08/26 08:28:15;;;;;;;5.95;5.30;;;;;;;20.68;62.27;99295.02;1806547;78;21011;-70
2021/08/26 08:30:42;;;;;;;5.60;4.75;;;;;;;20.68;62.45;99299.87;1804230;77;22146;-68
2021/08/26 08:33:09;;;;;;;5.87;5.17;;;;;;;20.68;62.28;99296.37;1762369;78;21527;-68
2021/08/26 08:35:36;;;;;;;6.22;4.65;;;;;;;20.67;62.08;99301.46;1806305;77;21032;-68
2021/08/26 08:38:03;;;;;;;5.50;4.97;;;;;;;20.68;61.94;99302.57;1806164;77;21030;-69
2021/08/26 08:40:30;;;;;;;5.80;4.92;;;;;;;20.67;61.85;99298.77;1806371;78;21042;-69
2021/08/26 08:42:56;;;;;;;5.30;4.72;;;;;;;20.67;61.56;99296.06;1785125;77;21058;-69
2021/08/26 08:45:23;;;;;;;6.78;4.70;;;;;;;20.66;61.33;99295.25;1809947;77;21084;-68
2021/08/26 08:47:51;;;;;;;5.05;4.60;;;;;;;20.66;61.33;99297.95;1806714;77;21504;-67
2021/08/26 08:50:23;;;;;;;4.58;4.05;;;;;;;20.65;61.27;99306.29;1793027;77;21086;-70
2021/08/26 08:52:50;;;;;;;5.95;4.15;;;;;;;20.64;61.24;99306.02;1797067;77;21062;-68
2021/08/26 08:55:19;;;;;;;4.12;3.70;;;;;;;20.62;61.34;99307.06;1786561;78;21041;-68
2021/08/26 08:57:46;;;;;;;4.72;3.72;;;;;;;20.60;61.19;99311.89;1799760;78;21019;-69
2021/08/26 09:00:15;;;;;;;4.97;3.65;;;;;;;20.60;61.08;99306.49;1797669;77;21049;-68
2021/08/26 09:02:41;;;;;;;4.75;3.50;;;;;;;20.59;61.10;99314.80;1774846;78;21053;-68
2021/08/26 09:05:08;;;;;;;4.20;3.72;;;;;;;20.58;61.15;99315.34;1773738;78;21089;-68
2021/08/26 09:07:35;;;;;;;4.15;3.75;;;;;;;20.57;61.36;99311.52;1806300;77;21093;-68
2021/08/26 09:10:02;;;;;;;3.80;3.40;;;;;;;20.56;61.66;99309.91;1806204;78;21818;-68
2021/08/26 09:12:45;;;;;;;4.17;3.33;;;;;;;20.55;61.78;99305.56;1806137;77;21031;-68
2021/08/26 09:15:21;;;;;;;3.55;3.12;;;;;;;20.54;61.95;99303.40;1801757;78;21479;-69
2021/08/26 09:17:47;;;;;;;4.22;3.83;;;;;;;20.53;62.22;99295.54;1785728;78;21521;-69
2021/08/26 09:20:18;;;;;;;4.55;3.30;;;;;;;20.51;62.39;99297.13;1806385;77;21063;-67
2021/08/26 09:22:46;;;;;;;4.33;3.42;;;;;;;20.51;62.28;99296.31;1783934;77;23148;-68
2021/08/26 09:25:14;;;;;;;3.75;3.30;;;;;;;20.51;62.13;99293.63;1786917;77;21636;-69
2021/08/26 09:27:44;;;;;;;7.10;3.15;;;;;;;20.51;62.27;99293.63;1779534;78;21529;-68
2021/08/26 09:30:14;;;;;;;5.85;3.80;;;;;;;20.50;62.40;99296.05;1806334;77;21066;-68
2021/08/26 09:32:47;;;;;;;7.60;3.85;;;;;;;20.50;62.49;99304.14;1800606;77;21057;-67
2021/08/26 09:35:24;;;;;;;5.37;3.50;;;;;;;20.48;62.72;99307.62;1806370;77;21791;-68
2021/08/26 09:38:01;;;;;;;4.30;3.67;;;;;;;20.49;62.87;99315.98;1777277;77;21013;-68
2021/08/26 09:40:32;;;;;;;4.67;4.17;;;;;;;20.48;62.84;99311.66;1793088;78;21062;-67
2021/08/26 09:43:06;;;;;;;4.03;3.62;;;;;;;20.47;62.97;99314.87;1797605;77;21505;-68
2021/08/26 09:45:36;;;;;;;4.10;3.62;;;;;;;20.46;63.04;99310.55;1768725;78;21010;-69
2021/08/26 09:48:09;;;;;;;4.47;4.03;;;;;;;20.47;63.16;99305.97;1806117;77;21090;-68
2021/08/26 09:50:47;;;;;;;3.92;3.62;;;;;;;20.46;63.36;99299.77;1804979;77;21013;-68
2021/08/26 09:53:16;;;;;;;4.42;3.50;;;;;;;20.46;63.55;99310.55;1805530;78;21471;-69
2021/08/26 09:55:54;;;;;;;4.45;3.77;;;;;;;20.47;63.48;99303.27;1806250;77;21085;-69
2021/08/26 09:58:26;;;;;;;4.35;3.83;;;;;;;20.46;63.57;99301.65;1799946;77;21093;-68
2021/08/26 10:01:13;;;;;;;3.75;3.45;;;;;;;20.46;63.52;99299.77;1806093;77;21101;-67
2021/08/26 10:03:41;;;;;;;3.80;3.40;;;;;;;20.46;63.68;99293.55;1805485;77;21085;-67
2021/08/26 10:06:08;;;;;;;3.58;3.27;;;;;;;20.46;63.57;99288.16;1793752;78;21500;-67
2021/08/26 10:08:34;;;;;;;5.28;3.85;;;;;;;20.46;63.72;99288.97;1804184;78;21028;-69
2021/08/26 10:11:02;;;;;;;3.30;3.00;;;;;;;20.47;63.50;99300.03;1792732;78;21006;-68
2021/08/26 10:13:29;;;;;;;2.75;2.55;;;;;;;20.48;63.39;99303.03;1772577;78;21130;-69
2021/08/26 10:15:56;;;;;;;4.40;2.90;;;;;;;20.48;63.02;99293.59;1804072;78;22078;-68
2021/08/26 10:18:23;;;;;;;2.87;2.67;;;;;;;20.50;62.75;99289.30;1804165;78;21081;-68
2021/08/26 10:20:49;;;;;;;2.80;2.60;;;;;;;20.50;62.56;99288.77;1781793;78;21035;-68
2021/08/26 10:23:16;;;;;;;3.00;2.27;;;;;;;20.51;62.46;99289.03;1798312;78;21061;-69
2021/08/26 10:25:45;;;;;;;3.17;2.92;;;;;;;20.51;62.41;99279.59;1804483;78;21086;-67
2021/08/26 10:28:12;;;;;;;3.77;2.85;;;;;;;20.52;62.46;99281.78;1804136;78;21167;-67
2021/08/26 10:30:41;;;;;;;2.87;2.67;;;;;;;20.53;62.48;99285.59;1780905;78;21554;-68
2021/08/26 10:33:23;;;;;;;3.50;2.52;;;;;;;20.53;62.41;99295.03;1784081;78;21042;-68
2021/08/26 10:35:58;;;;;;;2.92;2.55;;;;;;;20.54;62.30;99300.70;1781729;78;21042;-70
2021/08/26 10:38:35;;;;;;;4.30;2.80;;;;;;;20.54;62.17;99299.34;1804140;78;21137;-67
2021/08/26 10:41:26;;;;;;;3.30;2.83;;;;;;;20.54;62.20;99303.40;1786633;78;21527;-68
2021/08/26 10:43:59;;;;;;;3.12;2.62;;;;;;;20.54;62.37;99298.54;1791381;78;21015;-69
2021/08/26 10:46:53;;;;;;;3.22;2.87;;;;;;;20.53;62.28;99304.48;1796448;78;21043;-68
2021/08/26 10:49:20;;;;;;;3.92;2.40;;;;;;;20.54;62.15;99301.24;1782542;78;20994;-68
2021/08/26 10:51:49;;;;;;;4.40;3.20;;;;;;;20.52;62.10;99300.67;1804158;78;21102;-69
2021/08/26 10:54:32;;;;;;;2.95;2.52;;;;;;;20.53;62.17;99295.54;1789710;78;21058;-68
2021/08/26 10:57:27;;;;;;;2.50;2.30;;;;;;;20.52;62.16;99289.34;1776237;78;24083;-69
2021/08/26 10:59:53;;;;;;;3.30;2.77;;;;;;;20.52;62.18;99293.38;1794305;78;21015;-67
2021/08/26 11:02:42;;;;;;;3.25;2.90;;;;;;;20.52;62.33;99284.48;1804410;78;21553;-68
2021/08/26 11:05:37;;;;;;;3.12;2.85;;;;;;;20.51;62.60;99283.64;1804205;78;21113;-69
2021/08/26 11:08:28;;;;;;;2.95;2.72;;;;;;;20.51;63.35;99280.94;1827137;77;21087;-69
2021/08/26 11:10:55;;;;;;;2.30;2.10;;;;;;;20.50;63.75;99277.97;1827237;77;21023;-69
2021/08/26 11:13:32;;;;;;;2.70;2.50;;;;;;;20.50;63.43;99271.77;1827152;77;20993;-69
2021/08/26 11:16:28;;;;;;;2.33;2.12;;;;;;;20.51;63.52;99279.59;1807476;77;21486;-69
2021/08/26 11:19:50;;;;;;;2.52;2.33;;;;;;;20.57;63.81;99267.84;1870158;76;22582;-68
2021/08/26 11:22:17;;;;;;;2.42;2.22;;;;;;;20.53;63.97;99276.14;1823086;78;21552;-69
2021/08/26 11:24:51;;;;;;;2.45;2.10;;;;;;;20.56;63.63;99270.78;1814906;78;21094;-68
2021/08/26 11:27:22;;;;;;;2.70;2.47;;;;;;;20.58;63.30;99264.61;1818525;78;20934;-69
2021/08/26 11:29:50;;;;;;;2.95;2.50;;;;;;;20.59;63.25;99264.39;1826180;78;20957;-70
2021/08/26 11:32:17;;;;;;;2.50;2.30;;;;;;;20.62;63.43;99261.19;1824890;78;21036;-69
2021/08/26 11:34:50;;;;;;;4.28;2.98;;;;;;;20.64;63.64;99259.60;1822274;78;21108;-69
2021/08/26 11:37:31;;;;;;;2.90;2.60;;;;;;;20.66;63.65;99260.17;1824764;78;21740;-69
2021/08/26 11:40:05;;;;;;;3.30;3.00;;;;;;;20.69;63.60;99254.83;1826165;78;21517;-69
2021/08/26 11:42:38;;;;;;;3.25;2.95;;;;;;;20.71;63.94;99248.12;1826116;78;21138;-70
2021/08/26 11:45:23;;;;;;;4.97;2.80;;;;;;;20.73;64.02;99246.52;1826613;78;21080;-69